Matamoros, México

5:20 AM CDT en Julio 28, 2014 (GMT -0500)
Brownsville-South Padre I International (KBRO) Alt 20 ft | 25.91 °N, 97.42 °W | Change Station

Current weather conditions updated 27 minutes ago

Scattered Clouds
Nubes dispersas
79 ° F
Sensación térmica 79 ° F
N
5
Viento Variable Viento desde SE

Hoy se prevé una temperatura muy similar a la de ayer.

Hoy
Alta -- | Baja -- ° F
--% Posibilidad de precipitaciones
Ayer
Alta -- | Baja -- ° F
Precip. -- pul
6:54 AM 8:18 PM
Luna nueva, 2% visible
Presión 30.03 pul
Visibilidad 10.0 Millas
Nubes Nubes dispersas 1600 ft
Punto de rocío 77 ° F
Humedad 94%
Precipitaciones 0.00 pul
Espesor de la nieve No disponible.
UV 0 de una escala de 12
Polen No disponible.
Calidad del aire No disponible.
Flu Activity No disponible.
METAR KBRO 280953Z 13004KT 10SM SCT016 26/25 A3003 RMK AO2 SLP168 T02610250

More Conditions Fewer Conditions

Presión 30.03 pul
Visibilidad 10.0 Millas
Nubes Nubes dispersas 1600 ft
Punto de rocío 77 ° F
Humedad 94%
Precipitaciones 0.00 pul
Espesor de la nieve No disponible.
UV 0 de una escala de 12
Polen No disponible.
Calidad del aire No disponible.
Flu Activity No disponible.
METAR KBRO 280953Z 13004KT 10SM SCT016 26/25 A3003 RMK AO2 SLP168 T02610250

More Conditions Fewer Conditions

10-Day Weather Forecast

Almanac

Astronomía

Jul. 28, 2014 Salida Puesta
Hora real 6:54 AM CDT 8:18 PM CDT
Crepúsculo civil 6:29 AM CDT 8:43 PM CDT
Crepúsculo náutico 5:59 AM CDT 9:12 PM CDT
Crepúsculo astronómico 5:29 AM CDT 9:43 PM CDT
Luna 8:22 AM CDT 9:18 PM CDT
Horas de luz 14h 13m
Horas de luz
13h 23m
Tomorrow will be 1m 3s shorter.
Luna nueva, 2% of the Moon is Illuminated
Hoy
Luna nueva
Ago 3
Cuarto creciente
Ago 10
Luna llena
Ago 17
Cuarto menguante
Ago 25
Nueva

Extremos de ayer

Máximos del país Bajas del país

Community

WunderPhotos

Upload Photos

1,738,292 ¡fotos cargadas!

Nearby

Calidad del aire

Not available.

Grosos de nieve

Not available.

Actividad de terremotos

Ciudad Distance Mag. Tiempo y dato
No hay informes recientes de la actividad sísmica.
Magnitud mínima muestra es 2,5.

Temperaturas de aguas costeras

Lugar Temperatura
Sin partes meteorológicos de las estaciones

Estaciones meteorológicas cercanas

Ubicación de la estación Temp. Índice de calor Punto de rocío Humedad Viento Precip. Alt Actualizado Tipo
Heron Cove Estates, Brownsville, TX 80.3 ° F 86 ° F 77 ° F 90% OSO  a  2.3 mph 0.00 pul / hr 36 ft 4:24 AM CDT Rapid Fire
MesoWest RUSLTN , Olmito, TX 81 ° F 79 ° F - - Norte  a  - 0.00 pul / hr 35 ft 3:35 AM CDT MADIS
South Texas, Los Fresnos, TX 78.9 ° F 83 ° F 75 ° F 88% SE  a  1.0 mph 0.00 pul / hr 20 ft 4:15 AM CST Normal

Show More Stations Show Fewer Stations